createdAt,value
2022-09-09T00:05:05.761Z,51.40
2022-09-09T00:10:35.089Z,51.82
2022-09-09T00:15:42.036Z,51.74
2022-09-09T00:20:58.313Z,51.81
2022-09-09T00:26:21.695Z,51.87
2022-09-09T00:31:29.347Z,52.13
2022-09-09T00:36:35.626Z,51.62
2022-09-09T00:41:50.470Z,51.80
2022-09-09T00:47:15.076Z,52.22
2022-09-09T00:52:27.890Z,51.84
2022-09-09T00:57:32.880Z,52.44
2022-09-09T01:03:03.337Z,52.19
2022-09-09T01:08:17.897Z,52.07
2022-09-09T01:13:25.995Z,52.39
2022-09-09T01:18:35.701Z,51.90
2022-09-09T01:24:06.952Z,52.69
2022-09-09T01:29:12.419Z,52.60
2022-09-09T01:34:16.439Z,52.14
2022-09-09T01:39:19.779Z,52.34
2022-09-09T01:44:23.365Z,52.63
2022-09-09T01:49:26.072Z,52.58
2022-09-09T01:54:32.867Z,52.54
2022-09-09T02:00:00.246Z,52.63
2022-09-09T02:05:05.947Z,52.81
2022-09-09T02:10:24.594Z,52.74
2022-09-09T02:15:43.771Z,52.84
2022-09-09T02:20:48.037Z,52.85
2022-09-09T02:25:53.947Z,52.59
2022-09-09T02:30:57.227Z,52.63
2022-09-09T02:36:04.558Z,53.07
2022-09-09T02:41:07.619Z,53.72
2022-09-09T02:46:22.207Z,54.76
2022-09-09T02:51:40.339Z,55.45
2022-09-09T02:56:51.484Z,56.24
2022-09-09T03:01:54.720Z,57.09
2022-09-09T03:06:57.995Z,58.03
2022-09-09T03:12:01.491Z,58.89
2022-09-09T03:17:04.384Z,60.00
2022-09-09T03:22:07.067Z,61.61
2022-09-09T03:27:09.781Z,62.63
2022-09-09T03:32:13.756Z,63.92
2022-09-09T03:37:20.943Z,64.94
2022-09-09T03:42:23.815Z,65.68
2022-09-09T03:47:26.707Z,66.56
2022-09-09T03:52:30.564Z,67.15
2022-09-09T03:57:35.981Z,68.20
2022-09-09T04:02:38.788Z,67.98
2022-09-09T04:07:41.712Z,68.98
2022-09-09T04:12:48.989Z,69.01
2022-09-09T04:17:52.217Z,68.96
2022-09-09T04:22:54.842Z,69.47
2022-09-09T04:27:59.271Z,70.06
2022-09-09T04:33:01.894Z,70.25
2022-09-09T04:38:05.995Z,70.94
2022-09-09T04:43:12.603Z,71.61
2022-09-09T04:48:17.144Z,71.95
2022-09-09T04:53:19.811Z,72.28
2022-09-09T04:58:23.656Z,72.28
2022-09-09T05:03:26.295Z,72.68
2022-09-09T05:08:28.985Z,72.79
2022-09-09T05:13:33.175Z,73.02
2022-09-09T05:18:35.943Z,73.36
2022-09-09T05:23:39.167Z,73.95
2022-09-09T05:28:41.934Z,73.86
2022-09-09T05:33:47.215Z,74.43
2022-09-09T05:38:51.002Z,74.67
2022-09-09T05:43:53.672Z,74.83
2022-09-09T05:48:56.380Z,74.94
2022-09-09T05:53:59.571Z,75.13
2022-09-09T05:59:02.584Z,75.36
2022-09-09T06:04:05.384Z,75.99
2022-09-09T06:09:11.167Z,75.95
2022-09-09T06:14:14.058Z,75.54
2022-09-09T06:19:17.064Z,76.04
2022-09-09T06:24:21.134Z,76.22
2022-09-09T06:29:23.869Z,76.39
2022-09-09T06:34:26.598Z,76.06
2022-09-09T06:39:29.507Z,76.77
2022-09-09T06:44:35.273Z,76.80
2022-09-09T06:49:38.376Z,77.64
2022-09-09T06:54:41.383Z,78.00
2022-09-09T06:59:44.050Z,78.14
2022-09-09T07:04:46.782Z,78.15
2022-09-09T07:09:50.307Z,78.08
2022-09-09T07:14:53.100Z,78.48
2022-09-09T07:19:55.785Z,78.32
2022-09-09T07:24:58.413Z,78.40
2022-09-09T07:30:01.073Z,78.60
2022-09-09T07:35:04.023Z,78.40
2022-09-09T07:40:07.290Z,78.75
2022-09-09T07:45:10.281Z,79.15
2022-09-09T07:50:13.034Z,79.58
2022-09-09T07:55:16.246Z,79.71
2022-09-09T08:00:20.561Z,79.88
2022-09-09T08:05:23.888Z,80.03
2022-09-09T08:10:26.695Z,80.12
2022-09-09T08:15:31.797Z,80.30
2022-09-09T08:20:37.914Z,80.25
2022-09-09T08:25:40.613Z,80.39
2022-09-09T08:30:43.820Z,80.88
2022-09-09T08:35:53.996Z,80.96
2022-09-09T08:41:08.391Z,80.62
2022-09-09T08:46:18.330Z,80.24
2022-09-09T08:51:21.341Z,79.99
2022-09-09T08:56:26.873Z,80.50
2022-09-09T09:01:35.678Z,80.82
2022-09-09T09:07:15.014Z,80.81
2022-09-09T09:12:22.928Z,80.82
2022-09-09T09:17:29.104Z,80.93
2022-09-09T09:22:44.420Z,81.26
2022-09-09T09:28:01.712Z,81.43
2022-09-09T09:33:16.834Z,80.78
2022-09-09T09:43:55.262Z,81.14
2022-09-09T09:49:06.875Z,81.03
2022-09-09T09:54:28.761Z,80.82
2022-09-09T09:59:40.836Z,81.08
2022-09-09T10:04:46.475Z,80.77
2022-09-09T10:09:58.135Z,81.41
2022-09-09T10:15:11.221Z,80.99
2022-09-09T10:20:20.338Z,80.84
2022-09-09T10:25:27.189Z,81.27
2022-09-09T10:30:44.639Z,81.22
2022-09-09T10:36:03.156Z,81.25
2022-09-09T10:41:37.217Z,81.35
2022-09-09T10:47:16.718Z,81.33
2022-09-09T10:52:48.948Z,81.44
2022-09-09T10:57:53.428Z,81.19
2022-09-09T11:03:03.712Z,81.34
2022-09-09T11:08:13.419Z,81.26
2022-09-09T11:13:25.759Z,81.16
2022-09-09T11:18:30.391Z,81.83
2022-09-09T11:23:45.059Z,81.75
2022-09-09T11:29:10.317Z,81.78
2022-09-09T11:34:21.603Z,81.93
2022-09-09T11:39:53.775Z,82.17
2022-09-09T11:44:57.743Z,82.34
2022-09-09T11:50:15.887Z,82.49
2022-09-09T11:55:29.958Z,82.68
2022-09-09T12:00:55.021Z,82.78
2022-09-09T12:05:59.114Z,82.97
2022-09-09T12:11:02.455Z,82.97
2022-09-09T12:16:06.570Z,83.07
2022-09-09T12:21:42.454Z,83.49
2022-09-09T12:26:54.249Z,83.46
2022-09-09T12:32:10.256Z,83.36
2022-09-09T12:37:25.340Z,83.52
2022-09-09T12:42:28.814Z,83.44
2022-09-09T12:47:52.862Z,83.27
2022-09-09T12:53:00.166Z,83.53
2022-09-09T12:58:06.583Z,83.84
2022-09-09T13:03:19.054Z,83.78
2022-09-09T13:08:21.880Z,83.96
2022-09-09T13:13:28.366Z,84.01
2022-09-09T13:18:33.324Z,83.56
2022-09-09T13:23:38.898Z,83.84
2022-09-09T13:28:41.785Z,84.16
2022-09-09T13:33:44.418Z,84.33
2022-09-09T13:38:53.449Z,84.07
2022-09-09T13:43:56.540Z,83.99
2022-09-09T13:49:01.489Z,84.20
2022-09-09T13:54:10.331Z,83.99
2022-09-09T13:59:15.898Z,84.54
2022-09-09T14:04:21.795Z,84.32
2022-09-09T14:09:24.468Z,84.41
2022-09-09T14:14:27.109Z,84.51
2022-09-09T14:19:29.881Z,84.47
2022-09-09T14:24:32.568Z,84.87
2022-09-09T14:29:35.188Z,84.71
2022-09-09T14:34:38.487Z,84.82
2022-09-09T14:39:41.211Z,85.36
2022-09-09T14:44:43.974Z,85.25
2022-09-09T14:49:47.371Z,85.19
2022-09-09T14:54:50.716Z,85.26
2022-09-09T14:59:54.583Z,85.26
2022-09-09T15:04:59.083Z,85.48
2022-09-09T15:10:01.868Z,85.54
2022-09-09T15:15:05.914Z,85.67
2022-09-09T15:20:09.719Z,85.59
2022-09-09T15:25:13.548Z,85.79
2022-09-09T15:30:16.229Z,85.76
2022-09-09T15:35:18.849Z,85.82
2022-09-09T15:40:21.690Z,85.87
2022-09-09T15:45:24.547Z,85.84
2022-09-09T15:50:27.805Z,85.98
2022-09-09T15:55:30.559Z,85.84
2022-09-09T16:00:35.510Z,86.22
2022-09-09T16:05:38.209Z,86.33
2022-09-09T16:10:41.535Z,86.12
2022-09-09T16:15:44.648Z,86.26
2022-09-09T16:20:55.852Z,86.26
2022-09-09T16:26:02.498Z,86.58
2022-09-09T16:31:08.987Z,86.67
2022-09-09T16:36:15.096Z,86.71
2022-09-09T16:41:17.773Z,86.82
2022-09-09T16:46:21.556Z,86.71
2022-09-09T16:51:27.813Z,87.19
2022-09-09T16:56:36.349Z,87.06
2022-09-09T17:01:44.396Z,87.14
2022-09-09T17:06:51.802Z,87.15
2022-09-09T17:11:55.902Z,86.90
2022-09-09T17:17:09.391Z,87.10
2022-09-09T17:22:21.777Z,87.30
2022-09-09T17:27:24.445Z,87.47
2022-09-09T17:32:27.094Z,87.51
2022-09-09T17:37:29.728Z,87.55
2022-09-09T17:42:32.458Z,87.76
2022-09-09T17:47:35.095Z,87.87
2022-09-09T17:52:38.279Z,88.41
2022-09-09T17:57:40.962Z,88.18
2022-09-09T18:02:44.235Z,88.29
2022-09-09T18:07:47.079Z,88.53
2022-09-09T18:12:49.778Z,88.72
2022-09-09T18:17:52.476Z,88.91
2022-09-09T18:22:55.377Z,88.79
2022-09-09T18:27:58.588Z,89.13
2022-09-09T18:33:01.285Z,89.18
2022-09-09T18:38:04.280Z,89.27
2022-09-09T18:43:08.016Z,89.52
2022-09-09T18:48:10.713Z,89.49
2022-09-09T18:53:15.784Z,89.39
2022-09-09T18:58:18.443Z,89.20
2022-09-09T19:03:21.164Z,89.28
2022-09-09T19:08:23.862Z,89.36
2022-09-09T19:13:27.379Z,89.40
2022-09-09T19:18:30.319Z,89.31
2022-09-09T19:23:33.126Z,89.58
2022-09-09T19:28:36.279Z,89.76
2022-09-09T19:33:39.089Z,89.70
2022-09-09T19:38:42.115Z,89.64
2022-09-09T19:43:46.085Z,89.72
2022-09-09T19:48:49.034Z,89.95
2022-09-09T19:53:58.082Z,89.82
2022-09-09T19:59:00.883Z,89.63
2022-09-09T20:04:06.030Z,89.85
2022-09-09T20:09:12.318Z,89.80
2022-09-09T20:14:16.283Z,89.75
2022-09-09T20:19:19.049Z,89.71
2022-09-09T20:24:24.103Z,89.94
2022-09-09T20:29:26.741Z,90.16
2022-09-09T20:34:30.089Z,90.10
2022-09-09T20:39:32.876Z,89.87
2022-09-09T20:44:35.626Z,90.00
2022-09-09T20:49:38.530Z,90.27
2022-09-09T20:54:42.035Z,90.29
2022-09-09T20:59:48.112Z,90.14
2022-09-09T21:04:50.773Z,90.09
2022-09-09T21:09:53.398Z,90.19
2022-09-09T21:14:56.107Z,90.13
2022-09-09T21:19:58.697Z,89.88
2022-09-09T21:25:01.401Z,89.93
2022-09-09T21:30:05.145Z,90.19
2022-09-09T21:35:08.521Z,90.15
2022-09-09T21:40:11.378Z,90.17
2022-09-09T21:45:14.718Z,90.10
2022-09-09T21:50:18.067Z,89.99
2022-09-09T21:55:21.597Z,89.93
2022-09-09T22:00:24.287Z,90.12
2022-09-09T22:05:27.434Z,89.88
2022-09-09T22:10:30.412Z,89.94
2022-09-09T22:15:34.102Z,90.34
2022-09-09T22:20:42.275Z,90.11
2022-09-09T22:25:45.010Z,90.20
2022-09-09T22:30:47.708Z,90.30
2022-09-09T22:35:50.547Z,90.27
2022-09-09T22:40:53.532Z,90.62
2022-09-09T22:45:56.197Z,90.34
2022-09-09T22:51:11.236Z,90.40
2022-09-09T22:56:17.413Z,90.55
2022-09-09T23:01:21.207Z,90.42
2022-09-09T23:06:26.914Z,90.06
2022-09-09T23:11:32.683Z,89.99
2022-09-09T23:16:46.661Z,90.17
2022-09-09T23:21:50.900Z,89.68
2022-09-09T23:26:53.575Z,89.69
2022-09-09T23:31:56.381Z,89.97
2022-09-09T23:36:59.121Z,89.79
2022-09-09T23:42:06.148Z,89.46
2022-09-09T23:47:09.968Z,89.31
2022-09-09T23:52:12.700Z,89.26
2022-09-09T23:57:15.334Z,89.61
